Time;durP1;ratioP1;P1;durP2;ratioP2;P2;SDS_P1;SDS_P2;PMS_P1;PMS_P2;Temp;Humidity;BMP_temperature;BMP_pressure;BME280_temperature;BME280_humidity;BME280_pressure;Samples;Min_cycle;Max_cycle;Signal;HPM_P1;HPM_P2
2023/05/20 00:00:43;;;;;;;3.60;1.77;;;10.90;99.90;;;;;;5076474;28;20040;-64
2023/05/20 00:03:09;;;;;;;6.20;2.00;;;10.90;99.90;;;;;;5076224;28;20048;-64
2023/05/20 00:05:34;;;;;;;3.95;2.03;;;11.00;99.90;;;;;;5076486;28;20044;-64
2023/05/20 00:08:03;;;;;;;4.00;1.90;;;11.70;99.90;;;;;;5058447;28;20044;-64
2023/05/20 00:10:29;;;;;;;4.63;1.52;;;10.90;99.90;;;;;;5076211;28;20102;-64
2023/05/20 00:12:54;;;;;;;4.25;1.45;;;10.80;99.90;;;;;;5058373;28;20049;-64
2023/05/20 00:15:20;;;;;;;2.83;1.65;;;10.80;99.90;;;;;;5076258;28;20544;-64
2023/05/20 00:17:45;;;;;;;3.38;1.80;;;10.70;99.90;;;;;;5075885;28;20040;-64
2023/05/20 00:20:11;;;;;;;3.28;2.08;;;10.80;99.90;;;;;;5075884;28;20111;-64
2023/05/20 00:22:37;;;;;;;5.28;2.13;;;10.70;99.90;;;;;;5057910;28;20158;-64
2023/05/20 00:25:02;;;;;;;5.10;1.75;;;10.70;99.90;;;;;;5076025;28;20115;-64
2023/05/20 00:27:28;;;;;;;3.30;1.45;;;10.70;99.90;;;;;;5075989;28;20404;-64
2023/05/20 00:29:54;;;;;;;3.33;1.73;;;10.70;99.90;;;;;;5076056;28;20532;-68
2023/05/20 00:32:19;;;;;;;3.85;1.80;;;10.60;99.90;;;;;;5057629;28;20101;-64
2023/05/20 00:34:55;;;;;;;4.85;2.10;;;10.70;99.90;;;;;;5075892;28;20461;-64
2023/05/20 00:37:21;;;;;;;3.67;1.60;;;10.70;1.00;;;;;;5057594;28;20449;-64
2023/05/20 00:39:46;;;;;;;5.97;1.75;;;10.80;1.00;;;;;;5075836;28;20118;-64
2023/05/20 00:42:19;;;;;;;2.97;1.40;;;10.70;77.00;;;;;;5075701;28;20486;-64
2023/05/20 00:44:45;;;;;;;4.63;1.88;;;10.70;88.60;;;;;;5057562;28;20412;-64
2023/05/20 00:47:10;;;;;;;3.45;2.00;;;10.80;1.00;;;;;;5075684;28;20040;-64
2023/05/20 00:49:36;;;;;;;3.85;2.00;;;10.70;1.00;;;;;;5075665;28;20543;-64
2023/05/20 00:52:02;;;;;;;4.22;2.00;;;10.70;1.00;;;;;;5075412;28;20047;-64
2023/05/20 00:54:27;;;;;;;2.25;1.60;;;10.70;1.00;;;;;;5057726;28;20487;-64
2023/05/20 00:56:53;;;;;;;3.60;2.33;;;10.80;1.00;;;;;;5075561;28;20036;-64
2023/05/20 00:59:19;;;;;;;2.90;1.80;;;10.70;1.00;;;;;;5075485;28;20033;-64
2023/05/20 01:01:44;;;;;;;3.85;1.73;;;10.80;1.00;;;;;;5074777;28;20051;-64
2023/05/20 01:04:10;;;;;;;2.67;1.60;;;10.70;1.00;;;;;;5075377;28;20076;-64
2023/05/20 01:06:38;;;;;;;2.50;1.50;;;10.70;99.90;;;;;;5057069;28;20102;-64
2023/05/20 01:09:04;;;;;;;7.32;1.63;;;10.80;99.90;;;;;;5057001;28;20052;-64
2023/05/20 01:11:37;;;;;;;3.20;1.40;;;11.00;99.90;;;;;;5074870;28;20527;-64
2023/05/20 01:14:07;;;;;;;4.82;1.65;;;10.90;99.90;;;;;;5075211;28;20162;-64
2023/05/20 01:16:34;;;;;;;5.95;1.80;;;10.80;99.90;;;;;;5075087;28;20482;-64
2023/05/20 01:19:02;;;;;;;2.58;1.23;;;10.90;99.90;;;;;;5075071;28;20089;-64
2023/05/20 01:21:31;;;;;;;4.18;1.80;;;11.20;99.90;;;;;;5075060;28;20095;-64
2023/05/20 01:23:56;;;;;;;2.63;1.70;;;10.80;99.90;;;;;;5074970;28;20048;-66
2023/05/20 01:26:25;;;;;;;3.30;1.50;;;11.30;99.90;;;;;;5073771;28;20040;-65
2023/05/20 01:28:52;;;;;;;2.80;1.50;;;10.80;99.90;;;;;;5074850;28;20044;-64
2023/05/20 01:31:25;;;;;;;7.03;1.80;;;10.80;99.90;;;;;;5056945;28;20032;-64
2023/05/20 01:33:56;;;;;;;4.38;1.70;;;10.80;99.90;;;;;;5074837;28;20036;-64
2023/05/20 01:36:22;;;;;;;3.38;1.63;;;10.80;99.90;;;;;;5074751;28;20039;-64
2023/05/20 01:38:49;;;;;;;3.33;1.50;;;10.80;99.90;;;;;;5074691;28;20173;-64
2023/05/20 01:41:15;;;;;;;1.65;1.40;;;10.90;99.90;;;;;;5074635;28;20119;-64
2023/05/20 01:43:42;;;;;;;3.20;1.75;;;10.90;99.90;;;;;;5074322;28;20040;-64
2023/05/20 01:46:08;;;;;;;4.13;1.60;;;10.70;99.90;;;;;;5074461;28;20112;-64
2023/05/20 01:48:34;;;;;;;4.22;1.80;;;10.70;99.90;;;;;;5074511;28;20076;-64
2023/05/20 01:51:00;;;;;;;3.90;1.70;;;11.20;99.90;;;;;;5056286;28;20477;-64
2023/05/20 01:53:25;;;;;;;3.13;1.52;;;10.90;99.90;;;;;;5074012;28;20033;-64
2023/05/20 01:55:51;;;;;;;3.40;1.73;;;11.30;99.90;;;;;;5056379;28;20043;-64
2023/05/20 01:58:17;;;;;;;3.22;1.75;;;10.60;99.90;;;;;;5074259;28;20048;-64
2023/05/20 02:00:42;;;;;;;2.95;1.65;;;11.10;99.90;;;;;;5074176;28;20478;-64
2023/05/20 02:03:08;;;;;;;3.17;1.63;;;10.80;99.90;;;;;;5073894;28;20040;-64
2023/05/20 02:05:34;;;;;;;3.00;1.48;;;10.70;99.90;;;;;;5056234;28;20135;-64
2023/05/20 02:08:00;;;;;;;6.50;1.80;;;10.70;99.90;;;;;;5056190;28;20048;-64
2023/05/20 02:10:25;;;;;;;2.78;1.55;;;10.70;99.90;;;;;;5073838;28;20074;-65
2023/05/20 02:12:51;;;;;;;4.07;1.40;;;10.60;99.90;;;;;;5073060;28;20080;-64
2023/05/20 02:15:16;;;;;;;3.25;1.63;;;10.50;99.90;;;;;;5073879;28;20028;-64
2023/05/20 02:17:42;;;;;;;3.55;1.38;;;10.70;99.90;;;;;;5073929;28;20506;-64
2023/05/20 02:20:09;;;;;;;3.40;1.67;;;10.60;99.90;;;;;;5073850;28;20028;-64
2023/05/20 02:22:35;;;;;;;2.05;1.60;;;10.70;99.90;;;;;;5055690;28;20129;-64
2023/05/20 02:25:00;;;;;;;2.17;1.58;;;11.00;99.90;;;;;;5072539;28;20508;-64
2023/05/20 02:27:26;;;;;;;5.60;1.48;;;10.80;99.90;;;;;;5073799;28;20162;-64
2023/05/20 02:29:52;;;;;;;2.10;1.23;;;10.70;99.90;;;;;;5055550;28;20044;-64
2023/05/20 02:32:19;;;;;;;2.83;1.55;;;10.80;99.90;;;;;;5073463;28;20519;-63
2023/05/20 02:34:45;;;;;;;1.77;1.25;;;10.80;99.90;;;;;;5055388;28;20066;-64
2023/05/20 02:37:10;;;;;;;4.68;1.70;;;10.90;99.90;;;;;;5073528;28;20036;-64
2023/05/20 02:39:36;;;;;;;5.72;1.90;;;10.70;99.90;;;;;;5073465;28;20064;-64
2023/05/20 02:42:03;;;;;;;2.08;1.42;;;10.80;99.90;;;;;;5073190;28;20510;-64
2023/05/20 02:44:29;;;;;;;4.43;1.55;;;10.90;99.90;;;;;;5055218;28;20049;-64
2023/05/20 02:46:54;;;;;;;5.88;1.77;;;10.90;99.90;;;;;;5073144;28;20056;-64
2023/05/20 02:49:20;;;;;;;2.72;1.52;;;10.90;99.90;;;;;;5073052;28;20046;-64
2023/05/20 02:51:46;;;;;;;2.67;1.77;;;10.90;99.90;;;;;;5073393;28;20041;-64
2023/05/20 02:54:11;;;;;;;4.43;1.40;;;10.60;99.90;;;;;;5073056;28;20068;-65
2023/05/20 02:56:37;;;;;;;6.60;1.40;;;10.90;99.90;;;;;;5073341;28;20119;-64
2023/05/20 02:59:03;;;;;;;2.22;1.40;;;10.80;99.90;;;;;;5055042;28;20064;-64
2023/05/20 03:01:29;;;;;;;3.22;1.20;;;10.90;99.90;;;;;;5072943;28;20045;-64
2023/05/20 03:03:54;;;;;;;3.35;1.77;;;10.90;99.90;;;;;;5072912;28;20111;-64
2023/05/20 03:06:20;;;;;;;4.88;1.65;;;10.80;99.90;;;;;;5073175;28;20048;-64
2023/05/20 03:08:45;;;;;;;1.58;1.35;;;10.80;99.90;;;;;;5072967;28;20044;-64
2023/05/20 03:11:11;;;;;;;3.78;1.25;;;10.60;99.90;;;;;;5072835;28;20389;-64
2023/05/20 03:13:37;;;;;;;2.08;1.45;;;10.80;99.90;;;;;;5072739;28;20052;-64
2023/05/20 03:16:02;;;;;;;2.22;1.42;;;11.40;99.90;;;;;;5073059;28;20036;-64
2023/05/20 03:18:28;;;;;;;2.95;1.65;;;10.70;99.90;;;;;;5072794;28;20496;-64
2023/05/20 03:20:54;;;;;;;6.13;1.90;;;10.70;99.90;;;;;;5071554;28;20040;-64
2023/05/20 03:23:20;;;;;;;4.60;1.52;;;10.00;99.90;;;;;;5072770;28;20154;-64
2023/05/20 03:25:46;;;;;;;2.50;1.23;;;10.70;99.90;;;;;;5072835;28;20048;-64
2023/05/20 03:28:12;;;;;;;2.50;1.50;;;10.70;99.90;;;;;;5072928;28;20414;-64
2023/05/20 03:30:37;;;;;;;2.90;1.35;;;10.60;99.90;;;;;;5072934;28;20036;-64
2023/05/20 03:33:04;;;;;;;1.48;1.00;;;10.70;99.90;;;;;;5072821;28;20537;-64
2023/05/20 03:35:30;;;;;;;2.75;1.42;;;10.70;99.90;;;;;;5054666;28;20445;-65
2023/05/20 03:37:57;;;;;;;2.67;1.10;;;10.50;99.90;;;;;;5072810;28;20071;-65
2023/05/20 03:40:23;;;;;;;3.47;1.45;;;10.70;99.90;;;;;;5072787;28;20036;-64
2023/05/20 03:42:51;;;;;;;2.33;1.38;;;10.70;99.90;;;;;;5072808;28;20032;-64
2023/05/20 03:45:16;;;;;;;1.35;1.00;;;10.70;99.90;;;;;;5072760;28;20040;-64
2023/05/20 03:47:42;;;;;;;2.75;1.63;;;10.70;99.90;;;;;;5072818;28;20412;-64
2023/05/20 03:50:08;;;;;;;1.90;1.25;;;10.70;99.90;;;;;;5072773;28;20040;-64
2023/05/20 03:52:34;;;;;;;2.08;1.13;;;10.70;99.90;;;;;;5072644;28;20500;-64
2023/05/20 03:54:59;;;;;;;3.60;1.27;;;10.70;99.90;;;;;;5072709;28;20089;-64
2023/05/20 03:57:25;;;;;;;1.52;1.10;;;10.70;99.90;;;;;;5072690;28;20037;-64
2023/05/20 03:59:50;;;;;;;2.33;1.40;;;10.30;99.90;;;;;;5072627;28;20465;-64
2023/05/20 04:02:16;;;;;;;2.65;1.10;;;10.60;99.90;;;;;;5071417;28;20563;-64
2023/05/20 04:04:42;;;;;;;2.17;1.55;;;10.60;99.90;;;;;;5072621;28;20037;-64
2023/05/20 04:07:08;;;;;;;2.38;1.10;;;10.60;99.90;;;;;;5072541;28;20513;-64
2023/05/20 04:09:34;;;;;;;3.47;1.10;;;10.70;99.90;;;;;;5072525;28;20564;-64
2023/05/20 04:12:00;;;;;;;3.63;1.42;;;10.70;99.90;;;;;;5072100;28;20135;-64
2023/05/20 04:14:26;;;;;;;1.52;1.02;;;10.60;99.90;;;;;;5054401;28;20510;-64
2023/05/20 04:16:51;;;;;;;1.98;1.20;;;10.90;99.90;;;;;;5072172;28;20043;-64
2023/05/20 04:19:18;;;;;;;1.92;0.98;;;10.80;99.90;;;;;;5072177;28;20043;-65
2023/05/20 04:21:44;;;;;;;2.22;1.27;;;10.80;99.90;;;;;;5072411;28;20116;-66
2023/05/20 04:24:10;;;;;;;3.03;1.17;;;10.90;99.90;;;;;;5072073;28;20045;-64
2023/05/20 04:26:36;;;;;;;3.25;1.40;;;10.90;99.90;;;;;;5072373;28;20039;-64
2023/05/20 04:29:03;;;;;;;2.10;1.10;;;11.00;99.90;;;;;;5072359;28;20036;-64
2023/05/20 04:31:29;;;;;;;2.13;1.27;;;10.90;99.90;;;;;;5072042;28;20381;-64
2023/05/20 04:33:55;;;;;;;5.10;1.10;;;10.90;99.90;;;;;;5072276;28;20072;-64
2023/05/20 04:36:21;;;;;;;3.85;1.35;;;11.10;99.90;;;;;;5073839;28;20032;-64
2023/05/20 04:38:48;;;;;;;1.85;1.13;;;11.20;99.90;;;;;;5075827;28;20530;-64
2023/05/20 04:41:14;;;;;;;1.95;1.35;;;11.30;99.90;;;;;;5057706;28;20558;-64
2023/05/20 04:43:40;;;;;;;1.60;1.00;;;11.30;99.90;;;;;;5057652;28;20380;-63
2023/05/20 04:46:06;;;;;;;2.63;0.90;;;11.40;99.90;;;;;;5075722;28;20065;-64
2023/05/20 04:48:32;;;;;;;6.93;1.23;;;11.10;99.90;;;;;;5075456;28;20033;-64
2023/05/20 04:50:58;;;;;;;1.40;0.90;;;11.40;99.90;;;;;;5074070;28;20420;-64
2023/05/20 04:53:24;;;;;;;2.85;1.17;;;11.40;99.90;;;;;;5075557;28;20048;-64
2023/05/20 04:55:54;;;;;;;1.88;0.80;;;11.30;99.90;;;;;;5075571;28;20037;-64
2023/05/20 04:58:23;;;;;;;1.58;0.90;;;11.40;99.90;;;;;;5057273;28;20048;-64
2023/05/20 05:00:49;;;;;;;1.35;0.75;;;11.30;99.90;;;;;;5075384;28;20040;-64
2023/05/20 05:03:15;;;;;;;2.05;1.17;;;11.30;99.90;;;;;;5057558;28;20048;-64
2023/05/20 05:05:41;;;;;;;0.75;0.68;;;11.30;99.90;;;;;;5075029;28;20057;-65
2023/05/20 05:08:07;;;;;;;1.55;0.80;;;11.30;99.90;;;;;;5075224;28;20047;-64
2023/05/20 05:10:33;;;;;;;1.15;0.75;;;11.50;1.00;;;;;;5056821;28;20466;-64
2023/05/20 05:12:59;;;;;;;1.50;0.68;;;11.50;1.00;;;;;;5057292;28;20472;-64
2023/05/20 05:15:25;;;;;;;4.00;1.08;;;11.60;99.90;;;;;;5057260;28;20547;-64
2023/05/20 05:17:51;;;;;;;1.70;1.02;;;11.60;99.90;;;;;;5075385;28;20119;-66
2023/05/20 05:20:17;;;;;;;2.17;0.73;;;11.70;99.90;;;;;;5057185;28;20040;-66
2023/05/20 05:22:43;;;;;;;1.27;0.80;;;11.80;99.90;;;;;;5075131;28;20036;-66
2023/05/20 05:25:09;;;;;;;2.85;0.90;;;11.90;99.90;;;;;;5056650;28;20462;-66
2023/05/20 05:27:35;;;;;;;1.25;0.85;;;12.00;99.90;;;;;;5075005;28;20101;-66
2023/05/20 05:30:05;;;;;;;1.67;1.00;;;12.00;99.90;;;;;;5074597;28;20036;-66
2023/05/20 05:32:31;;;;;;;2.53;0.82;;;12.10;99.90;;;;;;5074638;28;20080;-66
2023/05/20 05:34:57;;;;;;;1.50;0.70;;;12.10;99.90;;;;;;5056910;28;20365;-66
2023/05/20 05:37:22;;;;;;;1.55;0.80;;;12.20;99.90;;;;;;5074727;28;20037;-66
2023/05/20 05:39:48;;;;;;;2.13;1.00;;;12.30;99.90;;;;;;5056512;28;20037;-66
2023/05/20 05:42:14;;;;;;;1.50;0.77;;;12.30;96.50;;;;;;5074281;28;20048;-66
2023/05/20 05:44:39;;;;;;;1.98;0.65;;;12.20;91.50;;;;;;5074566;28;20041;-66
2023/05/20 05:47:05;;;;;;;1.15;0.80;;;12.40;92.80;;;;;;5074442;28;20408;-66
2023/05/20 05:49:32;;;;;;;2.45;0.80;;;12.30;96.20;;;;;;5074484;28;20392;-67
2023/05/20 05:51:58;;;;;;;2.72;1.05;;;12.60;94.00;;;;;;5074298;28;20048;-67
2023/05/20 05:54:23;;;;;;;1.73;0.80;;;12.50;91.80;;;;;;5074303;28;20396;-66
2023/05/20 05:56:53;;;;;;;1.05;0.65;;;12.40;92.20;;;;;;5074239;28;20064;-66
2023/05/20 05:59:19;;;;;;;0.40;0.40;;;12.50;85.10;;;;;;5073921;28;20039;-67
2023/05/20 06:01:45;;;;;;;1.48;0.82;;;12.80;89.90;;;;;;5056067;28;20037;-66
2023/05/20 06:04:10;;;;;;;2.67;0.70;;;12.80;83.70;;;;;;5074120;28;20093;-66
2023/05/20 06:06:36;;;;;;;1.85;0.60;;;13.30;87.00;;;;;;5056214;28;20048;-66
2023/05/20 06:09:02;;;;;;;1.17;0.60;;;12.90;80.90;;;;;;5074012;28;20120;-66
2023/05/20 06:11:28;;;;;;;1.85;0.77;;;13.50;80.30;;;;;;5055694;28;20080;-66
2023/05/20 06:13:54;;;;;;;0.95;0.65;;;13.10;90.00;;;;;;5073914;28;20103;-66
2023/05/20 06:16:19;;;;;;;2.03;0.90;;;13.20;78.90;;;;;;5073641;28;20123;-66
2023/05/20 06:18:45;;;;;;;0.50;0.50;;;14.30;82.40;;;;;;5055914;28;20040;-67
2023/05/20 06:21:11;;;;;;;1.73;0.70;;;13.40;79.00;;;;;;5073723;28;20040;-66
2023/05/20 06:23:37;;;;;;;1.58;0.85;;;13.50;80.60;;;;;;5073716;28;20063;-69
2023/05/20 06:26:02;;;;;;;2.53;0.88;;;13.50;76.10;;;;;;5055853;28;20040;-66
2023/05/20 06:28:29;;;;;;;1.30;0.68;;;14.50;79.20;;;;;;5073421;28;20119;-66
2023/05/20 06:30:55;;;;;;;2.17;0.70;;;13.70;77.40;;;;;;5073657;28;20070;-66
2023/05/20 06:33:27;;;;;;;0.55;0.50;;;14.30;78.70;;;;;;5073306;28;20070;-66
2023/05/20 06:35:54;;;;;;;0.80;0.50;;;13.80;75.90;;;;;;5055730;28;20048;-66
2023/05/20 06:38:20;;;;;;;0.75;0.50;;;13.90;72.80;;;;;;5055628;28;20440;-66
2023/05/20 06:40:47;;;;;;;2.15;0.63;;;14.00;67.70;;;;;;5055198;28;20122;-66
2023/05/20 06:43:13;;;;;;;1.00;0.75;;;14.00;65.50;;;;;;5073408;28;20086;-66
2023/05/20 06:45:39;;;;;;;1.58;0.98;;;14.20;72.70;;;;;;5073447;28;20438;-68
2023/05/20 06:48:05;;;;;;;1.63;0.80;;;14.60;75.00;;;;;;5055443;28;20476;-66
2023/05/20 06:50:30;;;;;;;1.20;0.60;;;14.40;67.40;;;;;;5073343;28;20553;-66
2023/05/20 06:52:56;;;;;;;1.05;0.70;;;14.50;69.60;;;;;;5055497;28;20056;-66
2023/05/20 06:55:22;;;;;;;5.00;0.70;;;14.60;65.40;;;;;;5073357;28;20036;-68
2023/05/20 06:57:47;;;;;;;1.35;0.70;;;14.80;72.60;;;;;;5054768;28;20506;-69
2023/05/20 07:00:13;;;;;;;1.42;0.85;;;14.90;74.80;;;;;;5055025;28;20044;-67
2023/05/20 07:02:39;;;;;;;1.20;0.73;;;14.90;69.50;;;;;;5073042;28;20044;-65
2023/05/20 07:05:05;;;;;;;3.30;1.00;;;15.00;70.80;;;;;;5073022;28;20036;-64
2023/05/20 07:07:31;;;;;;;3.25;1.00;;;15.10;73.60;;;;;;5073104;28;20044;-65
2023/05/20 07:09:57;;;;;;;2.03;0.93;;;15.10;64.50;;;;;;5072973;28;20055;-67
2023/05/20 07:12:23;;;;;;;4.50;1.15;;;15.30;71.70;;;;;;5054678;28;20048;-66
2023/05/20 07:14:48;;;;;;;1.52;1.17;;;15.50;75.30;;;;;;5072763;28;20060;-65
2023/05/20 07:17:14;;;;;;;0.73;0.70;;;15.30;77.70;;;;;;5073064;28;20133;-65
2023/05/20 07:19:40;;;;;;;2.65;1.17;;;15.30;65.20;;;;;;5054629;28;20049;-65
2023/05/20 07:22:06;;;;;;;0.82;0.68;;;15.50;69.60;;;;;;5054884;28;20147;-66
2023/05/20 07:24:31;;;;;;;0.95;0.80;;;15.50;64.40;;;;;;5055024;28;20071;-65
2023/05/20 07:26:57;;;;;;;1.83;0.90;;;15.40;65.10;;;;;;5072865;28;20044;-65
2023/05/20 07:29:23;;;;;;;2.35;0.80;;;15.90;64.30;;;;;;5072824;28;20438;-65
2023/05/20 07:31:48;;;;;;;1.52;0.80;;;15.70;70.50;;;;;;5072413;28;20106;-66
2023/05/20 07:34:14;;;;;;;2.15;0.90;;;15.90;73.30;;;;;;5072668;28;20109;-67
2023/05/20 07:36:40;;;;;;;0.85;0.70;;;15.90;68.00;;;;;;5072491;28;20115;-66
2023/05/20 07:39:07;;;;;;;2.45;1.10;;;16.00;72.50;;;;;;5054407;28;20076;-66
2023/05/20 07:41:33;;;;;;;1.30;0.80;;;16.20;75.60;;;;;;5054730;28;20044;-67
2023/05/20 07:44:00;;;;;;;1.20;0.93;;;16.40;79.30;;;;;;5071551;28;20048;-67
2023/05/20 07:46:26;;;;;;;2.58;1.15;;;16.30;71.10;;;;;;5072608;28;20101;-66
2023/05/20 07:48:51;;;;;;;2.70;1.23;;;16.50;75.20;;;;;;5072812;28;20041;-66
2023/05/20 07:51:17;;;;;;;3.78;1.20;;;16.50;77.70;;;;;;5072678;28;20044;-66
2023/05/20 07:53:43;;;;;;;3.13;0.82;;;16.70;76.70;;;;;;5054321;28;20037;-66
2023/05/20 07:56:09;;;;;;;2.55;0.80;;;16.70;76.20;;;;;;5072339;28;20036;-66
2023/05/20 07:58:34;;;;;;;1.00;0.80;;;16.70;72.20;;;;;;5054392;28;20037;-67
2023/05/20 08:01:00;;;;;;;1.73;1.00;;;16.70;71.70;;;;;;5072596;28;20028;-67
2023/05/20 08:03:26;;;;;;;1.15;0.90;;;16.60;71.70;;;;;;5072454;28;20032;-65
2023/05/20 08:05:52;;;;;;;1.52;1.05;;;16.80;75.60;;;;;;5072153;28;20047;-65
2023/05/20 08:08:17;;;;;;;1.00;0.60;;;16.70;68.70;;;;;;5054149;28;20048;-65
2023/05/20 08:10:43;;;;;;;1.25;1.00;;;16.70;71.10;;;;;;5073234;28;20236;-65
2023/05/20 08:13:08;;;;;;;2.00;1.30;;;17.10;72.30;;;;;;5076213;28;20084;-65
2023/05/20 08:15:35;;;;;;;2.25;1.10;;;17.50;69.40;;;;;;5058167;28;20048;-65
2023/05/20 08:18:01;;;;;;;3.10;1.02;;;17.20;72.60;;;;;;5076211;28;20078;-65
2023/05/20 08:20:28;;;;;;;1.50;0.85;;;17.20;77.70;;;;;;5075845;28;20480;-65
2023/05/20 08:22:54;;;;;;;3.05;1.10;;;17.40;1.00;;;;;;5076156;28;20033;-66
2023/05/20 08:25:19;;;;;;;1.90;0.95;;;17.40;76.10;;;;;;5076100;28;20127;-66
2023/05/20 08:27:45;;;;;;;2.58;1.55;;;17.30;76.50;;;;;;5076049;28;20361;-65
2023/05/20 08:30:11;;;;;;;2.10;1.52;;;17.40;74.20;;;;;;5075687;28;20101;-65
2023/05/20 08:32:36;;;;;;;1.13;1.00;;;17.50;75.80;;;;;;5075868;28;20044;-65
2023/05/20 08:35:03;;;;;;;2.40;1.15;;;17.60;78.90;;;;;;5057895;28;20040;-65
2023/05/20 08:37:29;;;;;;;2.55;1.15;;;17.70;78.00;;;;;;5075931;28;20045;-66
2023/05/20 08:39:55;;;;;;;5.60;1.05;;;17.70;75.90;;;;;;5075544;28;20087;-66
2023/05/20 08:42:24;;;;;;;2.42;1.45;;;17.60;69.30;;;;;;5075544;28;20076;-66
2023/05/20 08:44:54;;;;;;;2.17;1.23;;;17.70;74.60;;;;;;5075785;28;20036;-66
2023/05/20 08:47:20;;;;;;;2.55;1.27;;;17.70;73.20;;;;;;5075689;28;20066;-66
2023/05/20 08:49:48;;;;;;;1.20;0.90;;;17.80;77.00;;;;;;5075658;28;20396;-66
2023/05/20 08:52:15;;;;;;;1.70;1.10;;;18.40;78.50;;;;;;5075481;28;20040;-65
2023/05/20 08:54:45;;;;;;;2.97;1.40;;;18.00;77.30;;;;;;5075654;28;20441;-65
2023/05/20 08:57:12;;;;;;;1.63;1.10;;;17.90;75.20;;;;;;5075235;28;20488;-65
2023/05/20 08:59:43;;;;;;;2.35;1.20;;;18.20;78.00;;;;;;5075508;28;20625;-66
2023/05/20 09:02:10;;;;;;;2.90;1.40;;;18.10;76.70;;;;;;5075396;28;20442;-66
2023/05/20 09:04:36;;;;;;;1.50;0.93;;;18.10;72.90;;;;;;5075438;28;20094;-65
2023/05/20 09:07:02;;;;;;;3.65;1.30;;;18.20;74.40;;;;;;5075351;28;20036;-65
2023/05/20 09:09:28;;;;;;;3.25;1.48;;;18.10;75.00;;;;;;5057393;28;20488;-65
2023/05/20 09:11:54;;;;;;;1.75;1.00;;;18.70;72.40;;;;;;5074806;28;20109;-65
2023/05/20 09:14:20;;;;;;;1.92;1.25;;;18.20;70.50;;;;;;5075156;28;20443;-66
2023/05/20 09:16:47;;;;;;;1.77;1.10;;;18.30;73.00;;;;;;5074846;28;20484;-65
2023/05/20 09:19:13;;;;;;;1.85;1.30;;;18.20;70.90;;;;;;5075004;28;20094;-65
2023/05/20 09:21:40;;;;;;;2.13;1.15;;;19.10;72.20;;;;;;5074629;28;20044;-66
2023/05/20 09:24:06;;;;;;;5.20;1.65;;;18.50;71.50;;;;;;5075035;28;20403;-66
2023/05/20 09:26:32;;;;;;;2.17;1.20;;;18.50;74.80;;;;;;5075041;28;20040;-65
2023/05/20 09:28:58;;;;;;;1.92;1.20;;;18.50;72.70;;;;;;5074702;28;20039;-65
2023/05/20 09:31:29;;;;;;;2.25;1.20;;;18.50;74.50;;;;;;5074947;28;20064;-65
2023/05/20 09:33:55;;;;;;;1.50;0.95;;;18.60;85.00;;;;;;5074758;28;20373;-66
2023/05/20 09:36:22;;;;;;;2.65;1.48;;;19.20;73.10;;;;;;5056906;28;20052;-66
2023/05/20 09:38:51;;;;;;;2.40;1.10;;;18.60;67.90;;;;;;5074687;28;20036;-67
2023/05/20 09:41:22;;;;;;;2.92;1.10;;;18.50;68.20;;;;;;5074356;28;20040;-65
2023/05/20 09:43:50;;;;;;;2.80;1.13;;;18.50;66.90;;;;;;5074648;28;20111;-64
2023/05/20 09:46:16;;;;;;;2.53;1.48;;;18.60;66.70;;;;;;5074601;28;20044;-64
2023/05/20 09:48:42;;;;;;;1.80;1.10;;;18.50;68.50;;;;;;5074583;28;20408;-64
2023/05/20 09:51:10;;;;;;;1.52;0.98;;;18.20;63.00;;;;;;5056281;28;20079;-64
2023/05/20 09:53:36;;;;;;;2.60;1.08;;;18.30;61.80;;;;;;5056212;28;20043;-64
2023/05/20 09:56:02;;;;;;;1.15;0.93;;;18.30;64.50;;;;;;5074107;28;20480;-64
2023/05/20 09:58:29;;;;;;;3.25;1.15;;;18.60;67.80;;;;;;5074316;28;20041;-64
2023/05/20 10:00:54;;;;;;;2.10;1.10;;;18.70;65.80;;;;;;5074283;28;20068;-64
2023/05/20 10:03:23;;;;;;;2.95;1.50;;;18.70;66.30;;;;;;5074196;28;20454;-64
2023/05/20 10:06:35;;;;;;;2.88;1.02;;;18.80;65.20;;;;;;5074207;28;20085;-64
2023/05/20 10:09:13;;;;;;;4.88;1.20;;;18.80;64.70;;;;;;5073683;28;20048;-66
2023/05/20 10:12:03;;;;;;;0.90;0.85;;;18.80;64.00;;;;;;5055933;28;20504;-64
2023/05/20 10:14:57;;;;;;;1.92;0.88;;;18.80;60.70;;;;;;5073983;28;20101;-64
2023/05/20 10:17:39;;;;;;;2.83;1.20;;;18.70;61.30;;;;;;5074032;28;20028;-65
2023/05/20 10:20:10;;;;;;;6.10;1.15;;;19.40;64.60;;;;;;5055816;28;20079;-66
2023/05/20 10:22:38;;;;;;;1.65;1.08;;;19.10;62.40;;;;;;5073793;28;20036;-67
2023/05/20 10:25:06;;;;;;;4.88;1.20;;;19.20;61.60;;;;;;5073722;28;20048;-67
2023/05/20 10:27:42;;;;;;;2.00;1.15;;;19.20;62.30;;;;;;5073666;28;20044;-65
2023/05/20 10:30:16;;;;;;;1.88;1.17;;;19.40;64.80;;;;;;5073586;28;20040;-65
2023/05/20 10:32:50;;;;;;;3.05;1.60;;;18.90;57.70;;;;;;5073218;28;20129;-64
2023/05/20 10:35:26;;;;;;;2.58;1.65;;;18.90;59.70;;;;;;5072964;28;20503;-66
2023/05/20 10:37:54;;;;;;;1.75;1.15;;;18.70;57.40;;;;;;5073532;28;20115;-67
2023/05/20 10:40:21;;;;;;;1.88;0.93;;;18.90;59.00;;;;;;5073270;28;20047;-69
2023/05/20 10:42:47;;;;;;;2.17;1.13;;;19.40;62.20;;;;;;5073083;28;20036;-69
2023/05/20 10:45:27;;;;;;;2.45;1.30;;;19.00;58.50;;;;;;5073337;28;20041;-67
2023/05/20 10:47:55;;;;;;;3.08;1.17;;;19.10;60.40;;;;;;5073413;28;20403;-66
2023/05/20 10:50:32;;;;;;;1.70;1.30;;;19.20;60.10;;;;;;5073312;28;20040;-66
2023/05/20 10:53:05;;;;;;;2.97;1.38;;;19.00;57.50;;;;;;5071770;28;20400;-65
2023/05/20 10:55:38;;;;;;;1.25;0.80;;;18.80;54.40;;;;;;5073217;28;20044;-65
2023/05/20 10:58:05;;;;;;;2.03;1.38;;;18.80;56.00;;;;;;5055001;28;20040;-65
2023/05/20 11:00:35;;;;;;;2.55;1.30;;;19.10;56.90;;;;;;5073268;28;20055;-65
2023/05/20 11:03:02;;;;;;;1.80;1.00;;;19.20;58.60;;;;;;5073167;28;20044;-65
2023/05/20 11:05:29;;;;;;;4.50;1.05;;;19.40;60.60;;;;;;5073211;28;20044;-65
2023/05/20 11:08:06;;;;;;;3.42;1.20;;;19.50;60.40;;;;;;5073144;28;20050;-65
2023/05/20 11:10:33;;;;;;;2.28;1.27;;;19.30;57.30;;;;;;5072934;28;20041;-65
2023/05/20 11:13:01;;;;;;;3.33;1.25;;;19.30;56.70;;;;;;5072745;28;20040;-65
2023/05/20 11:15:27;;;;;;;2.03;1.08;;;19.60;58.00;;;;;;5073038;28;20039;-65
2023/05/20 11:17:54;;;;;;;1.48;0.90;;;19.80;59.30;;;;;;5038242;28;20032;-65
2023/05/20 11:20:21;;;;;;;1.92;1.20;;;19.60;60.90;;;;;;5072725;28;20075;-65
2023/05/20 11:22:49;;;;;;;1.45;1.05;;;19.60;60.20;;;;;;5054837;28;20044;-65
2023/05/20 11:25:16;;;;;;;1.10;0.98;;;19.60;56.50;;;;;;5072706;28;20055;-65
2023/05/20 11:27:42;;;;;;;1.90;0.95;;;19.40;55.20;;;;;;5072696;28;20032;-65
2023/05/20 11:30:10;;;;;;;3.70;1.23;;;19.20;54.70;;;;;;5072912;28;20476;-65
2023/05/20 11:32:36;;;;;;;1.13;0.85;;;19.30;55.70;;;;;;5072856;28;20404;-65
2023/05/20 11:35:01;;;;;;;3.88;1.42;;;19.50;55.60;;;;;;5072875;28;20066;-68
2023/05/20 11:37:28;;;;;;;1.13;0.93;;;19.60;56.60;;;;;;5072547;28;20221;-66
2023/05/20 11:40:07;;;;;;;3.20;1.13;;;19.60;57.20;;;;;;5071601;28;20047;-67
2023/05/20 11:42:33;;;;;;;2.53;1.13;;;19.70;55.10;;;;;;5054532;28;20069;-65
2023/05/20 11:45:00;;;;;;;1.42;1.05;;;19.70;57.50;;;;;;5074107;28;20036;-66
2023/05/20 11:47:28;;;;;;;6.68;1.08;;;19.70;56.50;;;;;;5076678;28;20520;-65
2023/05/20 11:49:55;;;;;;;0.60;0.60;;;20.50;56.90;;;;;;5076118;28;20044;-67
2023/05/20 11:52:21;;;;;;;1.00;0.77;;;20.00;58.30;;;;;;5076523;28;20378;-67
2023/05/20 11:54:52;;;;;;;1.80;0.98;;;20.20;59.80;;;;;;5058689;28;20048;-67
2023/05/20 11:57:19;;;;;;;1.85;1.17;;;19.90;56.30;;;;;;5076536;28;20115;-67
2023/05/20 11:59:45;;;;;;;0.73;0.70;;;19.70;53.10;;;;;;5076448;28;20495;-67
2023/05/20 12:02:11;;;;;;;1.95;1.02;;;19.60;52.90;;;;;;5076045;28;20045;-67
2023/05/20 12:04:36;;;;;;;2.83;1.58;;;19.70;54.90;;;;;;5076138;28;20040;-65
2023/05/20 12:07:02;;;;;;;1.67;0.90;;;19.70;55.50;;;;;;5058031;28;20055;-66
2023/05/20 12:09:28;;;;;;;3.45;1.20;;;19.70;55.70;;;;;;5075980;28;20032;-65
2023/05/20 12:11:55;;;;;;;3.05;1.30;;;19.70;53.60;;;;;;5075909;28;20074;-65
2023/05/20 12:14:21;;;;;;;2.78;1.13;;;19.70;54.20;;;;;;5058261;28;20404;-65
2023/05/20 12:16:46;;;;;;;2.17;1.10;;;19.60;53.50;;;;;;5076162;28;20036;-65
2023/05/20 12:19:12;;;;;;;1.25;0.80;;;19.70;52.60;;;;;;5058330;28;20052;-65
2023/05/20 12:21:38;;;;;;;1.83;1.05;;;19.70;54.00;;;;;;5075954;28;20040;-65
2023/05/20 12:24:05;;;;;;;1.63;0.90;;;19.60;53.60;;;;;;5076189;28;20476;-65
2023/05/20 12:26:31;;;;;;;2.78;1.15;;;19.50;51.80;;;;;;5076070;28;20431;-65
2023/05/20 12:28:57;;;;;;;1.58;0.88;;;19.50;49.80;;;;;;5075938;28;20041;-65
2023/05/20 12:31:24;;;;;;;2.53;0.93;;;19.40;49.90;;;;;;5075941;28;20111;-67
2023/05/20 12:33:50;;;;;;;1.60;1.10;;;19.80;51.60;;;;;;5075748;28;20116;-66
2023/05/20 12:36:15;;;;;;;2.90;0.95;;;19.60;52.50;;;;;;5075895;28;20133;-66
2023/05/20 12:38:41;;;;;;;2.47;1.13;;;19.60;51.30;;;;;;5075846;28;20107;-65
2023/05/20 12:41:07;;;;;;;1.27;0.93;;;19.80;54.10;;;;;;5075768;28;20538;-66
2023/05/20 12:43:34;;;;;;;2.05;0.90;;;20.10;57.50;;;;;;5075753;28;20098;-65
2023/05/20 12:45:59;;;;;;;2.58;1.25;;;20.40;58.70;;;;;;5075611;28;20044;-66